createdAt,value
2019-05-20T00:01:35.347Z,34.78
2019-05-20T00:04:06.208Z,26.60
2019-05-20T00:06:37.005Z,23.60
2019-05-20T00:09:08.301Z,29.32
2019-05-20T00:11:39.246Z,32.53
2019-05-20T00:14:10.151Z,29.45
2019-05-20T00:16:41.151Z,26.55
2019-05-20T00:19:11.947Z,26.68
2019-05-20T00:21:42.642Z,25.05
2019-05-20T00:24:13.668Z,25.00
2019-05-20T00:26:44.538Z,23.62
2019-05-20T00:29:15.530Z,20.08
2019-05-20T00:31:46.428Z,25.62
2019-05-20T00:34:17.136Z,25.08
2019-05-20T00:36:47.781Z,26.73
2019-05-20T00:39:20.132Z,26.90
2019-05-20T00:41:50.821Z,24.40
2019-05-20T00:44:21.798Z,26.85
2019-05-20T00:46:52.775Z,23.00
2019-05-20T00:49:23.462Z,26.90
2019-05-20T00:51:54.230Z,21.42
2019-05-20T00:54:25.217Z,29.25
2019-05-20T00:56:55.837Z,20.80
2019-05-20T00:59:26.574Z,23.85
2019-05-20T01:01:57.532Z,17.60
2019-05-20T01:04:28.249Z,24.77
2019-05-20T01:06:58.939Z,17.35
2019-05-20T01:09:29.661Z,22.42
2019-05-20T01:12:00.343Z,25.82
2019-05-20T01:14:31.036Z,18.70
2019-05-20T01:17:02.061Z,22.35
2019-05-20T01:19:32.821Z,20.05
2019-05-20T01:22:03.504Z,25.45
2019-05-20T01:24:34.219Z,23.67
2019-05-20T01:27:04.952Z,26.12
2019-05-20T01:29:35.684Z,22.75
2019-05-20T01:32:06.376Z,24.70
2019-05-20T01:34:37.076Z,18.70
2019-05-20T01:37:07.844Z,18.30
2019-05-20T01:39:38.527Z,18.82
2019-05-20T01:42:09.406Z,22.58
2019-05-20T01:44:40.299Z,22.55
2019-05-20T01:47:11.275Z,20.20
2019-05-20T01:49:42.153Z,22.20
2019-05-20T01:52:12.848Z,25.10
2019-05-20T01:54:44.063Z,26.48
2019-05-20T01:57:14.738Z,23.83
2019-05-20T01:59:45.443Z,21.75
2019-05-20T02:02:16.136Z,23.60
2019-05-20T02:04:46.836Z,23.05
2019-05-20T02:07:18.266Z,21.45
2019-05-20T02:09:49.040Z,21.48
2019-05-20T02:12:19.746Z,24.65
2019-05-20T02:14:51.779Z,22.40
2019-05-20T02:17:22.453Z,20.70
2019-05-20T02:19:53.179Z,19.02
2019-05-20T02:22:23.929Z,19.52
2019-05-20T02:24:54.673Z,20.30
2019-05-20T02:27:25.629Z,24.63
2019-05-20T02:29:56.539Z,20.05
2019-05-20T02:32:27.202Z,23.57
2019-05-20T02:34:58.109Z,27.00
2019-05-20T02:37:28.807Z,20.00
2019-05-20T02:39:59.505Z,24.20
2019-05-20T02:42:30.200Z,19.27
2019-05-20T02:45:00.905Z,17.12
2019-05-20T02:47:31.652Z,28.05
2019-05-20T02:50:02.369Z,25.23
2019-05-20T02:52:33.011Z,21.73
2019-05-20T02:55:03.725Z,18.25
2019-05-20T02:57:34.394Z,18.55
2019-05-20T03:00:06.922Z,19.85
2019-05-20T03:02:37.593Z,23.18
2019-05-20T03:05:09.637Z,24.50
2019-05-20T03:07:40.361Z,21.30
2019-05-20T03:10:11.071Z,20.77
2019-05-20T03:12:41.745Z,17.62
2019-05-20T03:15:12.431Z,20.10
2019-05-20T03:17:43.056Z,17.92
2019-05-20T03:20:13.917Z,18.90
2019-05-20T03:22:47.076Z,19.77
2019-05-20T03:25:17.756Z,15.65
2019-05-20T03:27:48.542Z,23.62
2019-05-20T03:30:19.596Z,18.05
2019-05-20T03:32:50.338Z,19.67
2019-05-20T03:35:21.057Z,14.73
2019-05-20T03:37:52.340Z,22.73
2019-05-20T03:40:23.330Z,17.80
2019-05-20T03:42:54.319Z,16.42
2019-05-20T03:45:25.007Z,22.07
2019-05-20T03:47:55.700Z,22.75
2019-05-20T03:50:26.477Z,23.90
2019-05-20T03:52:57.272Z,18.02
2019-05-20T03:55:28.043Z,19.07
2019-05-20T03:57:58.776Z,20.80
2019-05-20T04:00:32.159Z,18.32
2019-05-20T04:03:02.898Z,21.90
2019-05-20T04:05:33.741Z,18.52
2019-05-20T04:08:04.641Z,21.37
2019-05-20T04:10:36.611Z,17.80
2019-05-20T04:13:07.404Z,19.17
2019-05-20T04:15:38.968Z,22.17
2019-05-20T04:18:10.234Z,16.60
2019-05-20T04:20:41.102Z,19.48
2019-05-20T04:23:12.095Z,16.87
2019-05-20T04:25:42.877Z,20.10
2019-05-20T04:28:13.896Z,18.50
2019-05-20T04:30:47.466Z,14.83
2019-05-20T04:33:24.413Z,20.00
2019-05-20T04:35:55.568Z,17.42
2019-05-20T04:38:26.413Z,17.57
2019-05-20T04:40:57.191Z,20.70
2019-05-20T04:43:28.017Z,16.27
2019-05-20T04:45:59.029Z,22.05
2019-05-20T04:48:29.876Z,21.07
2019-05-20T04:51:00.788Z,23.02
2019-05-20T04:53:32.906Z,24.10
2019-05-20T04:56:03.578Z,16.87
2019-05-20T04:58:34.773Z,19.20
2019-05-20T05:01:05.970Z,18.95
2019-05-20T05:03:36.951Z,18.12
2019-05-20T05:06:07.867Z,17.23
2019-05-20T05:08:38.535Z,15.15
2019-05-20T05:11:09.473Z,19.45
2019-05-20T05:13:40.474Z,18.15
2019-05-20T05:16:11.251Z,17.73
2019-05-20T05:18:41.944Z,18.57
2019-05-20T05:21:14.504Z,19.27
2019-05-20T05:23:58.340Z,18.17
2019-05-20T05:26:18.500Z,25.80
2019-05-20T05:28:50.456Z,21.12
2019-05-20T05:32:01.338Z,16.65
2019-05-20T05:34:34.610Z,16.80
2019-05-20T05:37:07.354Z,17.42
2019-05-20T05:39:45.096Z,13.17
2019-05-20T05:42:27.394Z,15.72
2019-05-20T05:44:58.165Z,19.65
2019-05-20T05:47:28.875Z,16.97
2019-05-20T05:49:59.557Z,14.38
2019-05-20T05:52:32.070Z,17.02
2019-05-20T05:55:04.970Z,16.85
2019-05-20T05:57:35.655Z,17.70
2019-05-20T06:00:08.008Z,18.30
2019-05-20T06:02:38.741Z,16.55
2019-05-20T06:05:09.565Z,14.98
2019-05-20T06:07:40.326Z,16.35
2019-05-20T06:10:11.121Z,17.90
2019-05-20T06:12:41.853Z,21.97
2019-05-20T06:15:12.644Z,13.83
2019-05-20T06:17:43.313Z,14.87
2019-05-20T06:20:14.181Z,16.45
2019-05-20T06:22:45.066Z,15.50
2019-05-20T06:25:16.015Z,15.28
2019-05-20T06:27:47.193Z,14.45
2019-05-20T06:30:19.208Z,13.90
2019-05-20T06:32:50.197Z,17.57
2019-05-20T06:35:20.890Z,18.75
2019-05-20T06:37:53.020Z,16.73
2019-05-20T06:40:23.973Z,14.73
2019-05-20T06:42:54.695Z,19.10
2019-05-20T06:45:25.364Z,14.53
2019-05-20T06:47:56.037Z,18.40
2019-05-20T06:50:29.590Z,16.67
2019-05-20T06:52:58.801Z,19.00
2019-05-20T06:55:29.480Z,19.10
2019-05-20T06:58:00.439Z,17.37
2019-05-20T07:00:33.739Z,14.53
2019-05-20T07:03:04.749Z,15.18
2019-05-20T07:05:35.719Z,16.02
2019-05-20T07:08:06.721Z,13.68
2019-05-20T07:10:37.925Z,16.00
2019-05-20T07:13:08.864Z,15.58
2019-05-20T07:15:39.935Z,17.73
2019-05-20T07:18:10.777Z,19.48
2019-05-20T07:20:41.761Z,19.82
2019-05-20T07:23:12.641Z,15.88
2019-05-20T07:25:43.500Z,14.13
2019-05-20T07:28:14.381Z,15.15
2019-05-20T07:30:45.175Z,18.85
2019-05-20T07:33:16.064Z,18.37
2019-05-20T07:35:47.243Z,13.22
2019-05-20T07:38:18.208Z,13.32
2019-05-20T07:40:49.084Z,16.35
2019-05-20T07:43:19.853Z,16.45
2019-05-20T07:45:50.735Z,14.98
2019-05-20T07:48:23.619Z,18.07
2019-05-20T07:50:54.209Z,17.00
2019-05-20T07:53:27.861Z,15.30
2019-05-20T07:56:01.296Z,14.10
2019-05-20T07:58:33.826Z,14.83
2019-05-20T08:01:04.572Z,15.50
2019-05-20T08:03:38.534Z,13.32
2019-05-20T08:06:07.794Z,13.15
2019-05-20T08:08:38.418Z,16.60
2019-05-20T08:11:09.346Z,15.88
2019-05-20T08:13:40.234Z,13.98
2019-05-20T08:16:10.902Z,16.12
2019-05-20T08:18:41.689Z,20.10
2019-05-20T08:21:13.179Z,14.68
2019-05-20T08:23:44.062Z,14.90
2019-05-20T08:26:15.051Z,16.55
2019-05-20T08:28:46.040Z,13.22
2019-05-20T08:31:17.061Z,14.70
2019-05-20T08:33:48.020Z,14.10
2019-05-20T08:36:18.917Z,15.83
2019-05-20T08:38:50.773Z,13.28
2019-05-20T08:41:21.531Z,21.33
2019-05-20T08:43:53.159Z,11.57
2019-05-20T08:46:23.949Z,11.73
2019-05-20T08:48:58.960Z,13.85
2019-05-20T08:51:29.843Z,12.85
2019-05-20T08:54:00.852Z,11.70
2019-05-20T08:56:31.749Z,13.50
2019-05-20T08:59:05.138Z,11.45
2019-05-20T09:01:36.189Z,20.10
2019-05-20T09:04:07.026Z,12.15
2019-05-20T09:06:37.867Z,20.32
2019-05-20T09:09:12.211Z,14.60
2019-05-20T09:11:41.340Z,14.57
2019-05-20T09:14:12.320Z,15.45
2019-05-20T09:16:43.262Z,14.93
2019-05-20T09:19:13.992Z,16.12
2019-05-20T09:21:44.888Z,19.77
2019-05-20T09:24:18.827Z,16.52
2019-05-20T09:26:48.003Z,13.05
2019-05-20T09:29:18.996Z,13.13
2019-05-20T09:31:49.665Z,12.37
2019-05-20T09:34:20.618Z,13.32
2019-05-20T09:36:51.478Z,15.25
2019-05-20T09:39:22.463Z,13.13
2019-05-20T09:41:53.271Z,17.23
2019-05-20T09:44:23.972Z,15.08
2019-05-20T09:46:55.380Z,15.60
2019-05-20T09:49:26.350Z,10.70
2019-05-20T09:51:58.295Z,14.07
2019-05-20T09:54:30.777Z,14.50
2019-05-20T09:57:01.748Z,12.43
2019-05-20T09:59:42.602Z,11.85
2019-05-20T10:02:05.030Z,15.93
2019-05-20T10:04:35.784Z,17.15
2019-05-20T10:07:06.772Z,14.95
2019-05-20T10:09:37.470Z,9.95
2019-05-20T10:12:09.345Z,15.13
2019-05-20T10:14:40.101Z,15.15
2019-05-20T10:17:10.820Z,12.50
2019-05-20T10:19:42.368Z,11.83
2019-05-20T10:22:13.379Z,11.73
2019-05-20T10:24:44.372Z,13.98
2019-05-20T10:27:15.221Z,14.87
2019-05-20T10:29:45.928Z,12.07
2019-05-20T10:32:16.780Z,12.30
2019-05-20T10:34:47.441Z,14.93
2019-05-20T10:37:18.322Z,11.60
2019-05-20T10:39:48.946Z,9.80
2019-05-20T10:42:19.857Z,11.60
2019-05-20T10:44:50.532Z,13.45
2019-05-20T10:47:21.611Z,13.45
2019-05-20T10:49:52.654Z,14.05
2019-05-20T10:52:23.571Z,14.10
2019-05-20T10:54:54.520Z,11.78
2019-05-20T10:57:25.289Z,12.90
2019-05-20T10:59:56.175Z,14.87
2019-05-20T11:02:30.996Z,12.10
2019-05-20T11:04:59.294Z,13.83
2019-05-20T11:07:30.164Z,13.20
2019-05-20T11:10:01.111Z,14.28
2019-05-20T11:12:31.999Z,15.93
2019-05-20T11:15:03.174Z,19.37
2019-05-20T11:17:34.171Z,17.65
2019-05-20T11:20:06.805Z,14.93
2019-05-20T11:22:37.581Z,15.17
2019-05-20T11:25:08.943Z,14.40
2019-05-20T11:27:39.821Z,16.82
2019-05-20T11:30:11.466Z,16.75
2019-05-20T11:32:42.394Z,16.82
2019-05-20T11:35:13.082Z,21.90
2019-05-20T11:37:44.094Z,18.27
2019-05-20T11:40:16.064Z,23.47
2019-05-20T11:42:46.991Z,24.35
2019-05-20T11:45:17.893Z,19.27
2019-05-20T11:47:48.827Z,20.88
2019-05-20T11:50:19.808Z,24.18
2019-05-20T11:52:50.816Z,24.32
2019-05-20T11:55:21.611Z,27.98
2019-05-20T11:57:52.521Z,25.95
2019-05-20T12:00:23.478Z,22.22
2019-05-20T12:02:54.400Z,21.93
2019-05-20T12:05:25.045Z,19.92
2019-05-20T12:07:56.209Z,20.80
2019-05-20T12:10:27.316Z,17.40
2019-05-20T12:12:58.211Z,19.15
2019-05-20T12:15:29.088Z,21.27
2019-05-20T12:17:59.876Z,17.12
2019-05-20T12:20:30.511Z,18.85
2019-05-20T12:23:01.176Z,20.65
2019-05-20T12:25:32.169Z,17.67
2019-05-20T12:28:02.938Z,18.98
2019-05-20T12:30:33.621Z,23.40
2019-05-20T12:33:17.835Z,19.05
2019-05-20T12:35:36.739Z,25.23
2019-05-20T12:38:07.544Z,16.87
2019-05-20T12:40:38.547Z,21.55
2019-05-20T12:43:09.507Z,18.77
2019-05-20T12:45:40.601Z,24.45
2019-05-20T12:48:11.406Z,17.32
2019-05-20T12:50:42.107Z,21.10
2019-05-20T12:53:12.971Z,22.95
2019-05-20T12:55:44.163Z,22.00
2019-05-20T12:58:15.017Z,20.62
2019-05-20T13:00:45.902Z,18.90
2019-05-20T13:03:16.859Z,16.87
2019-05-20T13:05:47.901Z,18.05
2019-05-20T13:08:18.679Z,21.02
2019-05-20T13:10:49.550Z,16.23
2019-05-20T13:13:20.308Z,19.75
2019-05-20T13:15:51.704Z,20.43
2019-05-20T13:18:23.349Z,19.02
2019-05-20T13:20:54.340Z,22.10
2019-05-20T13:23:25.325Z,18.17
2019-05-20T13:25:56.174Z,15.78
2019-05-20T13:28:26.946Z,22.45
2019-05-20T13:30:58.073Z,23.38
2019-05-20T13:33:29.149Z,34.43
2019-05-20T13:36:00.051Z,42.10
2019-05-20T13:38:31.198Z,49.83
2019-05-20T13:41:02.015Z,45.85
2019-05-20T13:43:32.781Z,54.30
2019-05-20T13:46:03.508Z,54.93
2019-05-20T13:48:34.431Z,53.87
2019-05-20T13:51:04.603Z,54.75
2019-05-20T13:53:35.266Z,51.23
2019-05-20T13:56:06.046Z,48.40
2019-05-20T13:58:36.938Z,47.62
2019-05-20T14:01:06.986Z,47.67
2019-05-20T14:03:37.920Z,43.80
2019-05-20T14:06:08.933Z,39.98
2019-05-20T14:08:39.815Z,39.10
2019-05-20T14:11:10.829Z,28.85
2019-05-20T14:13:41.576Z,25.27
2019-05-20T14:16:12.249Z,24.55
2019-05-20T14:18:42.952Z,22.30
2019-05-20T14:21:13.842Z,19.52
2019-05-20T14:23:44.721Z,24.43
2019-05-20T14:26:16.793Z,19.12
2019-05-20T14:28:47.785Z,23.95
2019-05-20T14:31:18.664Z,21.35
2019-05-20T14:33:49.668Z,21.35
2019-05-20T14:36:38.481Z,21.60
2019-05-20T14:38:53.029Z,22.20
2019-05-20T14:41:23.710Z,22.62
2019-05-20T14:43:54.593Z,26.25
2019-05-20T14:46:25.556Z,26.23
2019-05-20T14:48:56.442Z,18.10
2019-05-20T14:51:27.341Z,23.10
2019-05-20T14:53:58.382Z,18.62
2019-05-20T14:56:29.287Z,24.45
2019-05-20T14:59:00.251Z,29.30
2019-05-20T15:01:30.963Z,21.15
2019-05-20T15:04:01.976Z,23.18
2019-05-20T15:06:32.981Z,21.65
2019-05-20T15:09:03.945Z,24.95
2019-05-20T15:11:38.207Z,19.92
2019-05-20T15:14:07.706Z,20.35
2019-05-20T15:16:39.677Z,24.98
2019-05-20T15:19:10.745Z,17.92
2019-05-20T15:21:41.524Z,22.52
2019-05-20T15:24:12.198Z,21.52
2019-05-20T15:26:43.319Z,18.40
2019-05-20T15:29:27.648Z,18.95
2019-05-20T15:31:53.699Z,22.02
2019-05-20T15:34:29.067Z,17.95
2019-05-20T15:37:00.481Z,21.50
2019-05-20T15:39:31.569Z,16.67
2019-05-20T15:42:02.589Z,16.77
2019-05-20T15:44:34.936Z,20.72
2019-05-20T15:47:06.091Z,17.55
2019-05-20T15:49:37.082Z,16.95
2019-05-20T15:52:08.036Z,17.15
2019-05-20T15:54:38.990Z,17.92
2019-05-20T15:57:10.130Z,16.48
2019-05-20T15:59:46.099Z,16.15
2019-05-20T16:02:13.382Z,16.05
2019-05-20T16:04:44.059Z,18.55
2019-05-20T16:07:15.012Z,16.27
2019-05-20T16:09:45.685Z,24.40
2019-05-20T16:12:16.492Z,17.17
2019-05-20T16:14:47.168Z,12.53
2019-05-20T16:17:17.855Z,15.68
2019-05-20T16:19:48.787Z,15.48
2019-05-20T16:22:19.786Z,12.85
2019-05-20T16:24:50.831Z,13.10
2019-05-20T16:27:21.755Z,18.10
2019-05-20T16:30:05.553Z,13.55
2019-05-20T16:32:24.708Z,15.58
2019-05-20T16:34:55.634Z,14.60
2019-05-20T16:37:26.418Z,16.27
2019-05-20T16:39:57.319Z,13.00
2019-05-20T16:42:28.116Z,16.25
2019-05-20T16:44:58.838Z,13.53
2019-05-20T16:47:29.624Z,16.32
2019-05-20T16:50:00.599Z,12.60
2019-05-20T16:52:31.325Z,12.25
2019-05-20T16:55:02.295Z,13.48
2019-05-20T16:57:33.339Z,12.88
2019-05-20T17:00:07.813Z,15.30
2019-05-20T17:02:36.625Z,17.23
2019-05-20T17:05:08.388Z,15.68
2019-05-20T17:07:39.390Z,13.40
2019-05-20T17:10:10.249Z,15.35
2019-05-20T17:12:41.254Z,17.12
2019-05-20T17:15:13.427Z,16.80
2019-05-20T17:17:44.285Z,14.78
2019-05-20T17:20:15.262Z,18.95
2019-05-20T17:22:46.159Z,15.45
2019-05-20T17:25:17.712Z,15.23
2019-05-20T17:27:48.712Z,17.62
2019-05-20T17:30:19.898Z,13.95
2019-05-20T17:32:50.819Z,14.73
2019-05-20T17:35:21.768Z,14.85
2019-05-20T17:37:55.151Z,16.12
2019-05-20T17:40:25.175Z,18.02
2019-05-20T17:42:56.037Z,16.70
2019-05-20T17:45:26.796Z,16.90
2019-05-20T17:47:57.662Z,14.43
2019-05-20T17:50:28.481Z,16.57
2019-05-20T17:52:59.215Z,15.63
2019-05-20T17:55:30.459Z,14.03
2019-05-20T17:58:01.438Z,14.13
2019-05-20T18:00:32.305Z,18.50
2019-05-20T18:03:03.197Z,19.30
2019-05-20T18:05:34.067Z,17.00
2019-05-20T18:08:04.943Z,15.43
2019-05-20T18:10:35.709Z,17.98
2019-05-20T18:13:06.702Z,17.77
2019-05-20T18:15:37.585Z,14.10
2019-05-20T18:18:08.367Z,15.00
2019-05-20T18:20:39.227Z,19.17
2019-05-20T18:23:10.368Z,13.83
2019-05-20T18:25:41.030Z,17.57
2019-05-20T18:28:11.827Z,13.60
2019-05-20T18:30:42.771Z,13.60
2019-05-20T18:33:13.759Z,15.68
2019-05-20T18:35:44.421Z,16.97
2019-05-20T18:38:15.327Z,18.50
2019-05-20T18:40:46.065Z,14.25
2019-05-20T18:43:17.072Z,16.50
2019-05-20T18:45:47.947Z,17.37
2019-05-20T18:48:18.861Z,16.32
2019-05-20T18:50:49.633Z,16.73
2019-05-20T18:53:20.312Z,15.48
2019-05-20T18:55:51.173Z,18.32
2019-05-20T18:58:22.155Z,17.60
2019-05-20T19:00:53.028Z,14.93
2019-05-20T19:03:24.375Z,14.85
2019-05-20T19:05:55.729Z,19.92
2019-05-20T19:08:26.595Z,17.50
2019-05-20T19:10:57.563Z,15.25
2019-05-20T19:13:28.528Z,13.22
2019-05-20T19:15:59.496Z,18.50
2019-05-20T19:18:30.294Z,14.95
2019-05-20T19:21:01.158Z,14.85
2019-05-20T19:23:31.966Z,12.70
2019-05-20T19:26:02.825Z,14.30
2019-05-20T19:28:33.522Z,16.50
2019-05-20T19:31:07.732Z,13.18
2019-05-20T19:33:36.489Z,13.98
2019-05-20T19:36:07.291Z,12.63
2019-05-20T19:38:38.332Z,16.95
2019-05-20T19:41:09.385Z,16.35
2019-05-20T19:43:40.097Z,16.57
2019-05-20T19:46:10.998Z,15.95
2019-05-20T19:48:42.077Z,15.20
2019-05-20T19:51:12.860Z,21.55
2019-05-20T19:53:43.674Z,17.20
2019-05-20T19:56:14.324Z,17.35
2019-05-20T19:58:45.102Z,16.07
2019-05-20T20:01:15.960Z,17.42
2019-05-20T20:03:46.891Z,14.58
2019-05-20T20:06:17.899Z,15.68
2019-05-20T20:08:48.816Z,14.60
2019-05-20T20:11:19.796Z,16.85
2019-05-20T20:13:50.693Z,19.77
2019-05-20T20:16:59.024Z,17.15
2019-05-20T20:19:30.409Z,16.20
2019-05-20T20:22:01.289Z,18.70
2019-05-20T20:24:32.165Z,16.93
2019-05-20T20:27:03.067Z,16.12
2019-05-20T20:29:33.946Z,18.62
2019-05-20T20:32:04.746Z,19.02
2019-05-20T20:34:35.585Z,16.10
2019-05-20T20:37:06.603Z,21.25
2019-05-20T20:39:37.460Z,17.87
2019-05-20T20:42:08.472Z,19.75
2019-05-20T20:44:39.435Z,16.07
2019-05-20T20:47:10.182Z,19.27
2019-05-20T20:49:41.164Z,20.02
2019-05-20T20:52:12.025Z,18.60
2019-05-20T20:54:42.799Z,18.62
2019-05-20T20:57:13.804Z,22.70
2019-05-20T20:59:44.486Z,18.77
2019-05-20T21:02:15.266Z,18.35
2019-05-20T21:04:46.045Z,18.98
2019-05-20T21:07:17.050Z,16.17
2019-05-20T21:09:47.816Z,18.17
2019-05-20T21:12:18.812Z,20.52
2019-05-20T21:14:49.590Z,19.37
2019-05-20T21:17:20.477Z,15.98
2019-05-20T21:19:51.252Z,20.50
2019-05-20T21:22:22.240Z,19.32
2019-05-20T21:24:53.005Z,17.73
2019-05-20T21:27:23.783Z,18.32
2019-05-20T21:29:54.549Z,15.78
2019-05-20T21:32:26.306Z,18.98
2019-05-20T21:34:57.312Z,19.62
2019-05-20T21:37:28.212Z,18.23
2019-05-20T21:39:58.897Z,21.02
2019-05-20T21:42:29.801Z,16.65
2019-05-20T21:45:00.679Z,22.93
2019-05-20T21:47:31.491Z,17.30
2019-05-20T21:50:02.176Z,16.75
2019-05-20T21:52:33.047Z,18.30
2019-05-20T21:55:03.738Z,23.60
2019-05-20T21:57:34.431Z,20.15
2019-05-20T22:00:06.718Z,19.55
2019-05-20T22:02:37.464Z,17.67
2019-05-20T22:05:08.597Z,19.95
2019-05-20T22:07:39.500Z,21.65
2019-05-20T22:10:10.405Z,20.45
2019-05-20T22:12:41.310Z,18.82
2019-05-20T22:15:12.354Z,18.80
2019-05-20T22:17:43.243Z,20.92
2019-05-20T22:20:14.200Z,16.00
2019-05-20T22:22:46.370Z,18.50
2019-05-20T22:25:17.247Z,20.05
2019-05-20T22:27:48.212Z,18.65
2019-05-20T22:30:18.995Z,17.77
2019-05-20T22:32:49.768Z,23.92
2019-05-20T22:35:20.621Z,19.32
2019-05-20T22:37:51.458Z,20.80
2019-05-20T22:40:22.112Z,19.42
2019-05-20T22:42:52.774Z,20.37
2019-05-20T22:45:23.474Z,21.87
2019-05-20T22:47:54.141Z,21.23
2019-05-20T22:50:25.030Z,24.55
2019-05-20T22:52:55.893Z,23.98
2019-05-20T22:55:26.858Z,20.88
2019-05-20T22:57:57.766Z,23.42
2019-05-20T23:00:28.733Z,23.98
2019-05-20T23:02:59.648Z,23.15
2019-05-20T23:05:30.619Z,20.65
2019-05-20T23:08:01.500Z,26.52
2019-05-20T23:10:32.593Z,26.52
2019-05-20T23:13:03.502Z,23.22
2019-05-20T23:15:34.618Z,28.15
2019-05-20T23:18:05.433Z,24.40
2019-05-20T23:20:36.211Z,25.80
2019-05-20T23:23:06.975Z,25.40
2019-05-20T23:25:37.819Z,22.73
2019-05-20T23:28:08.533Z,27.48
2019-05-20T23:30:39.414Z,23.10
2019-05-20T23:33:10.219Z,25.32
2019-05-20T23:35:41.035Z,23.12
2019-05-20T23:38:11.990Z,22.05
2019-05-20T23:40:42.867Z,21.45
2019-05-20T23:43:13.673Z,19.90
2019-05-20T23:45:45.033Z,27.65
2019-05-20T23:48:16.064Z,18.67
2019-05-20T23:50:46.760Z,20.15
2019-05-20T23:53:17.543Z,21.73
2019-05-20T23:55:48.401Z,16.40
2019-05-20T23:58:19.213Z,22.80
